Time;durP1;ratioP1;P1;durP2;ratioP2;P2;SDS_P1;SDS_P2;PMS_P1;PMS_P2;Temp;Humidity;BMP_temperature;BMP_pressure;BME280_temperature;BME280_humidity;BME280_pressure;Samples;Min_cycle;Max_cycle;Signal;HPM_P1;HPM_P2
2021/04/03 00:00:15;;;;;;;1.40;1.30;;;21.10;58.30;;;;;;5091206;28;20024;-41
2021/04/03 00:02:40;;;;;;;1.40;1.30;;;21.10;58.40;;;;;;5088305;28;20024;-42
2021/04/03 00:05:07;;;;;;;1.52;1.42;;;21.10;58.50;;;;;;5090650;28;20047;-41
2021/04/03 00:07:33;;;;;;;1.60;1.50;;;21.10;58.50;;;;;;5090967;28;20464;-46
2021/04/03 00:09:59;;;;;;;1.50;1.40;;;21.10;58.40;;;;;;5092085;28;20493;-40
2021/04/03 00:12:24;;;;;;;1.20;1.10;;;21.10;58.40;;;;;;5091683;28;20047;-43
2021/04/03 00:14:51;;;;;;;1.75;1.33;;;21.10;58.40;;;;;;5089906;28;20351;-41
2021/04/03 00:17:16;;;;;;;1.52;1.42;;;21.10;59.10;;;;;;5089453;28;20051;-41
2021/04/03 00:19:42;;;;;;;2.25;1.40;;;21.10;58.50;;;;;;5090622;28;20024;-41
2021/04/03 00:22:07;;;;;;;0.90;0.90;;;21.00;58.50;;;;;;5091448;28;20024;-41
2021/04/03 00:24:33;;;;;;;1.10;1.00;;;21.10;58.60;;;;;;5090619;28;20024;-42
2021/04/03 00:26:58;;;;;;;1.50;1.30;;;21.10;58.50;;;;;;5090560;28;20460;-41
2021/04/03 00:29:24;;;;;;;1.25;1.15;;;21.10;58.50;;;;;;5089774;28;20039;-41
2021/04/03 00:31:50;;;;;;;1.33;1.20;;;21.10;58.60;;;;;;5087617;28;20024;-39
2021/04/03 00:34:15;;;;;;;1.30;1.00;;;21.10;58.50;;;;;;5090461;28;20069;-40
2021/04/03 00:36:41;;;;;;;1.30;1.20;;;21.10;58.40;;;;;;5085166;28;20077;-41
2021/04/03 00:39:06;;;;;;;1.20;1.10;;;21.00;58.40;;;;;;5090203;28;20028;-43
2021/04/03 00:41:32;;;;;;;1.35;1.20;;;21.00;58.50;;;;;;5083948;28;20123;-42
2021/04/03 00:43:58;;;;;;;1.40;1.30;;;21.00;58.30;;;;;;5077299;28;20028;-42
2021/04/03 00:46:23;;;;;;;1.77;1.67;;;21.00;58.40;;;;;;5090836;28;20037;-39
2021/04/03 00:48:49;;;;;;;1.20;1.00;;;21.00;58.40;;;;;;5092237;28;20397;-41
2021/04/03 00:51:14;;;;;;;1.00;1.00;;;21.10;58.60;;;;;;5087539;28;20032;-42
2021/04/03 00:53:40;;;;;;;0.90;0.90;;;21.00;58.40;;;;;;5090021;28;20585;-42
2021/04/03 00:56:06;;;;;;;0.82;0.82;;;21.00;58.50;;;;;;5088784;28;20035;-41
2021/04/03 00:58:32;;;;;;;1.00;0.90;;;21.00;58.50;;;;;;5090254;28;20486;-42
2021/04/03 01:00:57;;;;;;;1.23;1.20;;;21.00;58.40;;;;;;5092192;28;20032;-43
2021/04/03 01:03:24;;;;;;;0.98;0.98;;;21.00;58.40;;;;;;5121700;27;20028;-42
2021/04/03 01:05:49;;;;;;;1.45;1.02;;;21.00;58.40;;;;;;5088917;28;20031;-42
2021/04/03 01:08:15;;;;;;;1.10;1.00;;;21.00;58.40;;;;;;5089905;28;20031;-42
2021/04/03 01:10:46;;;;;;;0.85;0.70;;;21.00;58.50;;;;;;5090020;28;20502;-42
2021/04/03 01:13:24;;;;;;;1.30;1.10;;;20.90;58.40;;;;;;5076907;28;20052;-43
2021/04/03 01:16:22;;;;;;;0.95;0.90;;;21.00;58.50;;;;;;5091886;28;20020;-42
2021/04/03 01:19:06;;;;;;;1.98;1.20;;;21.00;58.30;;;;;;5108699;28;20044;-43
2021/04/03 01:22:02;;;;;;;2.00;1.10;;;21.10;58.10;;;;;;5089474;28;20027;-44
2021/04/03 01:24:36;;;;;;;1.23;0.88;;;21.10;58.00;;;;;;5089595;28;20036;-43
2021/04/03 01:27:15;;;;;;;0.95;0.95;;;21.10;58.10;;;;;;5089930;28;20545;-41
2021/04/03 01:30:05;;;;;;;1.25;1.15;;;21.20;58.00;;;;;;5087629;28;20039;-42
2021/04/03 01:32:59;;;;;;;0.75;0.75;;;21.30;57.70;;;;;;5089639;28;20498;-46
2021/04/03 01:35:39;;;;;;;0.80;0.80;;;21.40;57.50;;;;;;5086689;28;20020;-40
2021/04/03 01:38:10;;;;;;;1.23;1.13;;;21.30;57.50;;;;;;5088823;28;20074;-42
2021/04/03 01:40:36;;;;;;;0.80;0.80;;;21.30;57.50;;;;;;5085655;28;20478;-43
2021/04/03 01:43:08;;;;;;;0.77;0.77;;;21.30;57.50;;;;;;5089469;28;20036;-42
2021/04/03 01:45:34;;;;;;;0.95;0.95;;;21.30;57.50;;;;;;5091730;28;20081;-42
2021/04/03 01:48:00;;;;;;;0.90;0.90;;;21.30;57.40;;;;;;5088304;28;20494;-43
2021/04/03 01:50:26;;;;;;;1.60;1.05;;;21.30;57.40;;;;;;5088239;28;20028;-42
2021/04/03 01:52:51;;;;;;;1.00;1.00;;;21.30;57.50;;;;;;5088377;28;20035;-43
2021/04/03 01:55:17;;;;;;;1.50;1.40;;;21.30;57.60;;;;;;5087748;28;20512;-42
2021/04/03 01:57:48;;;;;;;1.10;1.00;;;21.30;57.60;;;;;;5086711;28;20038;-42
2021/04/03 02:00:15;;;;;;;1.20;0.77;;;21.30;57.40;;;;;;5083617;28;20025;-45
2021/04/03 02:02:41;;;;;;;0.90;0.90;;;21.30;57.20;;;;;;5082173;28;20073;-39
2021/04/03 02:05:10;;;;;;;2.00;0.85;;;21.20;57.50;;;;;;5087804;28;20036;-41
2021/04/03 02:07:36;;;;;;;1.08;1.00;;;21.10;57.90;;;;;;5088395;28;20123;-42
2021/04/03 02:10:03;;;;;;;0.95;0.85;;;21.00;58.10;;;;;;5089363;28;20024;-42
2021/04/03 02:12:29;;;;;;;0.70;0.70;;;20.90;58.20;;;;;;5122625;27;20063;-42
2021/04/03 02:14:54;;;;;;;1.45;1.15;;;20.90;58.30;;;;;;5121819;28;20378;-38
2021/04/03 02:17:20;;;;;;;0.85;0.85;;;20.90;58.40;;;;;;5075835;28;20094;-43
2021/04/03 02:19:45;;;;;;;1.38;1.00;;;20.80;58.50;;;;;;5066478;28;20028;-42
2021/04/03 02:22:15;;;;;;;1.15;1.00;;;20.80;58.50;;;;;;5063473;28;20021;-39
2021/04/03 02:24:43;;;;;;;1.75;1.20;;;20.80;58.60;;;;;;5069905;28;20025;-43
2021/04/03 02:27:08;;;;;;;0.90;0.90;;;20.80;58.60;;;;;;5071364;28;20040;-41
2021/04/03 02:29:34;;;;;;;0.88;0.85;;;20.80;58.70;;;;;;5072560;28;20032;-41
2021/04/03 02:32:00;;;;;;;0.63;0.60;;;20.80;58.70;;;;;;5071080;28;20043;-41
2021/04/03 02:34:25;;;;;;;1.83;1.08;;;20.70;58.60;;;;;;5054943;28;20058;-42
2021/04/03 02:36:51;;;;;;;1.23;1.00;;;20.70;58.60;;;;;;5072235;28;20040;-41
2021/04/03 02:39:16;;;;;;;0.90;0.90;;;20.80;58.60;;;;;;5070972;28;20588;-41
2021/04/03 02:41:46;;;;;;;1.00;1.00;;;20.70;58.60;;;;;;5070444;28;20028;-41
2021/04/03 02:44:17;;;;;;;1.00;1.00;;;20.80;58.50;;;;;;5072264;28;20470;-42
2021/04/03 02:46:48;;;;;;;1.02;1.02;;;20.80;58.50;;;;;;5071331;28;20090;-41
2021/04/03 02:49:18;;;;;;;1.00;1.00;;;20.80;58.50;;;;;;5071221;28;20028;-41
2021/04/03 02:51:46;;;;;;;0.70;0.70;;;20.80;58.40;;;;;;5073231;28;20020;-41
2021/04/03 02:54:13;;;;;;;0.85;0.80;;;20.80;58.50;;;;;;5071062;28;20032;-46
2021/04/03 02:56:41;;;;;;;0.63;0.63;;;20.80;58.60;;;;;;5070716;28;20012;-43
2021/04/03 02:59:06;;;;;;;0.73;0.73;;;20.80;58.60;;;;;;5069286;28;20036;-43
2021/04/03 03:01:33;;;;;;;0.80;0.80;;;20.70;58.50;;;;;;5067913;28;20025;-42
2021/04/03 03:03:58;;;;;;;0.80;0.80;;;20.80;59.30;;;;;;5072229;28;20028;-43
2021/04/03 03:06:24;;;;;;;0.60;0.60;;;20.80;58.40;;;;;;5053143;28;20376;-42
2021/04/03 03:08:50;;;;;;;0.90;0.90;;;20.80;58.50;;;;;;5067297;28;20054;-43
2021/04/03 03:11:19;;;;;;;0.70;0.70;;;20.80;58.40;;;;;;5070284;28;20028;-43
2021/04/03 03:13:44;;;;;;;0.57;0.57;;;20.80;58.30;;;;;;5072083;28;20060;-43
2021/04/03 03:16:10;;;;;;;0.52;0.52;;;20.90;58.30;;;;;;5074647;28;20084;-41
2021/04/03 03:18:37;;;;;;;0.88;0.88;;;20.90;58.20;;;;;;5104122;28;20029;-42
2021/04/03 03:21:03;;;;;;;3.45;0.70;;;20.90;58.70;;;;;;5083334;28;20086;-40
2021/04/03 03:23:28;;;;;;;1.02;0.98;;;20.90;57.90;;;;;;5086127;28;20506;-41
2021/04/03 03:25:57;;;;;;;0.60;0.60;;;21.00;57.90;;;;;;5086034;28;20020;-43
2021/04/03 03:28:23;;;;;;;0.60;0.60;;;21.00;57.80;;;;;;5080884;28;20040;-42
2021/04/03 03:30:49;;;;;;;0.80;0.80;;;21.00;57.80;;;;;;5088052;28;20099;-42
2021/04/03 03:33:15;;;;;;;1.33;0.80;;;21.00;57.80;;;;;;5080280;28;20116;-38
2021/04/03 03:35:40;;;;;;;0.68;0.68;;;20.90;57.90;;;;;;5118750;27;20030;-41
2021/04/03 03:38:06;;;;;;;0.60;0.60;;;20.90;57.90;;;;;;5088952;28;20397;-41
2021/04/03 03:40:31;;;;;;;0.50;0.50;;;20.90;58.00;;;;;;5091641;28;20054;-44
2021/04/03 03:42:57;;;;;;;0.55;0.50;;;20.90;57.90;;;;;;5091319;28;20382;-45
2021/04/03 03:45:22;;;;;;;0.50;0.50;;;20.90;57.90;;;;;;5085353;28;20115;-42
2021/04/03 03:47:48;;;;;;;0.88;0.55;;;20.90;58.00;;;;;;5086462;28;20115;-43
2021/04/03 03:50:14;;;;;;;0.57;0.57;;;20.90;57.80;;;;;;5091599;28;20024;-44
2021/04/03 03:52:39;;;;;;;0.70;0.70;;;20.90;58.00;;;;;;5091385;28;20429;-41
2021/04/03 03:55:05;;;;;;;0.68;0.68;;;20.80;58.00;;;;;;5089026;28;20382;-43
2021/04/03 03:57:31;;;;;;;0.60;0.60;;;20.80;58.00;;;;;;5089843;28;20020;-42
2021/04/03 03:59:56;;;;;;;0.70;0.70;;;20.80;58.00;;;;;;5086473;28;20032;-41
2021/04/03 04:02:22;;;;;;;0.80;0.70;;;20.80;57.90;;;;;;5090561;28;20020;-45
2021/04/03 04:04:48;;;;;;;0.68;0.63;;;20.80;58.00;;;;;;5088343;28;20505;-43
2021/04/03 04:07:13;;;;;;;0.40;0.40;;;20.70;58.10;;;;;;5088203;28;20040;-43
2021/04/03 04:09:41;;;;;;;0.50;0.50;;;20.80;58.10;;;;;;5090368;28;20020;-43
2021/04/03 04:12:07;;;;;;;0.70;0.60;;;20.90;58.50;;;;;;5087170;28;20028;-42
2021/04/03 04:14:33;;;;;;;0.90;0.57;;;21.00;57.60;;;;;;5088969;28;20043;-45
2021/04/03 04:16:59;;;;;;;0.82;0.70;;;21.10;57.40;;;;;;5089129;28;20040;-41
2021/04/03 04:19:24;;;;;;;0.93;0.70;;;21.10;58.00;;;;;;5089077;28;20132;-41
2021/04/03 04:21:50;;;;;;;0.70;0.70;;;21.10;58.40;;;;;;5088785;28;20034;-44
2021/04/03 04:24:15;;;;;;;1.83;0.88;;;21.20;58.50;;;;;;5088695;28;20081;-42
2021/04/03 04:26:41;;;;;;;2.15;0.68;;;21.20;58.20;;;;;;5090402;28;20040;-43
2021/04/03 04:29:06;;;;;;;0.90;0.63;;;21.10;58.20;;;;;;5090185;28;20077;-42
2021/04/03 04:31:32;;;;;;;2.30;0.77;;;21.10;58.40;;;;;;5088224;28;20029;-42
2021/04/03 04:33:58;;;;;;;0.70;0.60;;;21.20;58.20;;;;;;5090762;28;20030;-43
2021/04/03 04:36:23;;;;;;;0.50;0.47;;;21.10;58.30;;;;;;5088587;28;20026;-42
2021/04/03 04:38:49;;;;;;;0.80;0.80;;;21.10;58.30;;;;;;5088698;28;20563;-42
2021/04/03 04:41:14;;;;;;;1.52;0.60;;;21.00;58.40;;;;;;5088188;28;20028;-46
2021/04/03 04:43:40;;;;;;;3.20;0.82;;;21.00;58.30;;;;;;5084035;28;20024;-43
2021/04/03 04:46:05;;;;;;;0.75;0.75;;;21.00;58.40;;;;;;5081713;28;20047;-42
2021/04/03 04:48:31;;;;;;;0.75;0.70;;;21.00;58.80;;;;;;5088432;28;20020;-42
2021/04/03 04:50:56;;;;;;;0.80;0.70;;;21.10;58.10;;;;;;5087152;28;20030;-42
2021/04/03 04:53:22;;;;;;;1.75;0.70;;;21.10;58.00;;;;;;5087621;28;20498;-42
2021/04/03 04:55:47;;;;;;;0.73;0.60;;;21.10;58.00;;;;;;5088179;28;20367;-41
2021/04/03 04:58:13;;;;;;;0.63;0.63;;;21.10;57.90;;;;;;5088824;28;20024;-43
2021/04/03 05:00:39;;;;;;;1.33;1.10;;;21.20;57.60;;;;;;5089200;28;20028;-42
2021/04/03 05:03:04;;;;;;;0.70;0.65;;;21.10;57.90;;;;;;5089659;28;20814;-39
2021/04/03 05:05:30;;;;;;;0.65;0.50;;;21.10;57.80;;;;;;5086673;28;20028;-42
2021/04/03 05:07:55;;;;;;;0.55;0.55;;;21.10;57.90;;;;;;5087910;28;20028;-38
2021/04/03 05:10:21;;;;;;;0.60;0.50;;;21.10;58.00;;;;;;5089359;28;20024;-42
2021/04/03 05:12:47;;;;;;;0.68;0.50;;;21.10;57.60;;;;;;5090463;28;20051;-39
2021/04/03 05:15:12;;;;;;;0.52;0.50;;;21.10;57.90;;;;;;5089115;28;20080;-41
2021/04/03 05:17:38;;;;;;;0.75;0.75;;;21.00;58.00;;;;;;5088018;28;20048;-41
2021/04/03 05:20:04;;;;;;;0.73;0.73;;;21.00;58.60;;;;;;5089594;28;20048;-46
2021/04/03 05:22:30;;;;;;;1.75;0.50;;;20.90;58.10;;;;;;5089009;28;20021;-41
2021/04/03 05:24:56;;;;;;;0.60;0.60;;;20.90;58.00;;;;;;5091825;28;20504;-38
2021/04/03 05:27:21;;;;;;;0.68;0.68;;;21.00;57.90;;;;;;5090343;28;20032;-41
2021/04/03 05:29:47;;;;;;;0.65;0.60;;;21.00;58.00;;;;;;5089663;28;20036;-46
2021/04/03 05:32:12;;;;;;;0.60;0.60;;;21.00;58.60;;;;;;5088594;28;20039;-41
2021/04/03 05:34:38;;;;;;;0.50;0.47;;;21.00;57.90;;;;;;5087963;28;20031;-41
2021/04/03 05:37:04;;;;;;;0.70;0.70;;;21.00;57.80;;;;;;5090516;28;20028;-41
2021/04/03 05:39:29;;;;;;;0.80;0.80;;;21.10;57.60;;;;;;5090885;28;20034;-41
2021/04/03 05:41:56;;;;;;;0.63;0.63;;;21.10;57.60;;;;;;5089570;28;20070;-43
2021/04/03 05:44:22;;;;;;;0.55;0.55;;;21.10;57.50;;;;;;5086074;28;20527;-41
2021/04/03 05:46:47;;;;;;;1.00;0.70;;;21.10;57.40;;;;;;5079875;28;20029;-45
2021/04/03 05:49:13;;;;;;;0.50;0.50;;;21.10;58.10;;;;;;5082411;28;20030;-38
2021/04/03 05:51:39;;;;;;;0.75;0.70;;;21.10;57.50;;;;;;5099770;28;20024;-42
2021/04/03 05:54:05;;;;;;;0.50;0.50;;;21.00;57.70;;;;;;5083679;28;20034;-42
2021/04/03 05:56:30;;;;;;;0.70;0.70;;;21.10;57.60;;;;;;5088375;28;20085;-41
2021/04/03 05:58:56;;;;;;;0.60;0.60;;;21.00;57.60;;;;;;5083385;28;20442;-39
2021/04/03 06:01:22;;;;;;;0.70;0.55;;;21.00;57.70;;;;;;5088110;28;20036;-39
2021/04/03 06:03:48;;;;;;;0.70;0.70;;;21.00;57.70;;;;;;5093153;28;20397;-42
2021/04/03 06:06:13;;;;;;;0.60;0.60;;;21.00;57.60;;;;;;5085438;28;20047;-42
2021/04/03 06:08:39;;;;;;;0.50;0.50;;;21.00;58.40;;;;;;5119695;27;20020;-41
2021/04/03 06:11:17;;;;;;;0.80;0.80;;;21.00;57.70;;;;;;5091196;28;20025;-41
2021/04/03 06:14:02;;;;;;;0.57;0.57;;;21.00;57.70;;;;;;5078495;28;20024;-42
2021/04/03 06:16:35;;;;;;;0.80;0.73;;;21.10;57.50;;;;;;5070237;28;20049;-42
2021/04/03 06:19:09;;;;;;;1.08;1.08;;;21.10;57.40;;;;;;5068586;28;20063;-40
2021/04/03 06:21:58;;;;;;;0.70;0.70;;;21.00;57.50;;;;;;5068630;28;20062;-43
2021/04/03 06:24:28;;;;;;;0.65;0.65;;;21.10;57.40;;;;;;5071188;28;20040;-39
2021/04/03 06:27:00;;;;;;;0.70;0.70;;;21.00;57.60;;;;;;5072652;28;20033;-47
2021/04/03 06:29:35;;;;;;;0.73;0.70;;;21.00;58.20;;;;;;5072390;28;20036;-40
2021/04/03 06:32:01;;;;;;;0.80;0.80;;;21.10;57.50;;;;;;5068188;28;20021;-41
2021/04/03 06:34:30;;;;;;;0.80;0.80;;;21.00;57.50;;;;;;5069829;28;20032;-43
2021/04/03 06:36:56;;;;;;;1.13;1.13;;;20.90;57.50;;;;;;5073600;28;20036;-40
2021/04/03 06:39:22;;;;;;;0.75;0.75;;;21.00;58.20;;;;;;5072552;28;20036;-42
2021/04/03 06:41:48;;;;;;;0.90;0.90;;;21.10;57.40;;;;;;5070847;28;20028;-41
2021/04/03 06:44:13;;;;;;;1.23;0.70;;;21.00;57.50;;;;;;5071726;28;20368;-42
2021/04/03 06:46:40;;;;;;;0.75;0.75;;;21.00;57.60;;;;;;5072313;28;20060;-40
2021/04/03 06:49:06;;;;;;;1.67;0.80;;;21.00;57.60;;;;;;5073182;28;20506;-41
2021/04/03 06:51:32;;;;;;;1.02;1.02;;;20.90;57.40;;;;;;5072701;28;20024;-40
2021/04/03 06:53:58;;;;;;;0.80;0.80;;;20.90;57.60;;;;;;5072009;28;20035;-40
2021/04/03 06:56:25;;;;;;;3.03;1.38;;;20.90;57.70;;;;;;5072261;28;20021;-40
2021/04/03 06:58:59;;;;;;;3.15;1.55;;;21.00;57.60;;;;;;5074747;28;20035;-41
2021/04/03 07:01:26;;;;;;;3.10;1.90;;;20.80;57.70;;;;;;5059888;28;20483;-41
2021/04/03 07:03:55;;;;;;;3.35;1.55;;;20.80;58.20;;;;;;5057822;28;20556;-42
2021/04/03 07:06:22;;;;;;;1.45;1.30;;;20.70;58.20;;;;;;5069665;28;20052;-39
2021/04/03 07:08:48;;;;;;;2.30;1.63;;;20.80;58.00;;;;;;5066934;28;20027;-41
2021/04/03 07:11:14;;;;;;;3.92;1.52;;;20.90;57.90;;;;;;5068292;28;20109;-40
2021/04/03 07:13:39;;;;;;;4.90;2.10;;;20.90;57.60;;;;;;5069992;28;20071;-43
2021/04/03 07:16:05;;;;;;;1.30;1.20;;;20.90;57.80;;;;;;5072207;28;20025;-41
2021/04/03 07:18:31;;;;;;;2.90;1.98;;;21.00;57.60;;;;;;5091034;28;20040;-42
2021/04/03 07:20:57;;;;;;;1.77;1.35;;;21.00;57.50;;;;;;5107542;28;20116;-41
2021/04/03 07:23:22;;;;;;;1.80;1.35;;;21.00;57.60;;;;;;5090185;28;20035;-42
2021/04/03 07:25:48;;;;;;;1.30;1.20;;;21.10;57.60;;;;;;5096855;28;20019;-43
2021/04/03 07:28:16;;;;;;;1.58;1.30;;;21.00;57.80;;;;;;5106683;28;20089;-41
2021/04/03 07:30:46;;;;;;;1.35;1.23;;;21.00;57.80;;;;;;5127865;27;20022;-43
2021/04/03 07:33:16;;;;;;;2.10;1.60;;;21.00;57.80;;;;;;5088889;28;20440;-40
2021/04/03 07:35:45;;;;;;;1.60;1.40;;;21.00;58.30;;;;;;5084679;28;20012;-42
2021/04/03 07:38:12;;;;;;;1.10;1.00;;;21.10;57.60;;;;;;5088307;28;20032;-41
2021/04/03 07:40:51;;;;;;;1.15;1.05;;;21.10;57.60;;;;;;5090927;28;20027;-42
2021/04/03 07:43:30;;;;;;;1.40;1.30;;;21.10;57.50;;;;;;5089418;28;20013;-42
2021/04/03 07:46:03;;;;;;;1.35;1.17;;;21.00;57.70;;;;;;5092675;28;20402;-41
2021/04/03 07:48:38;;;;;;;1.88;1.17;;;21.00;57.70;;;;;;5092456;28;20050;-42
2021/04/03 07:51:04;;;;;;;1.20;1.10;;;21.00;57.70;;;;;;5087278;28;20035;-41
2021/04/03 07:53:40;;;;;;;1.50;1.20;;;21.00;57.50;;;;;;5086462;28;20050;-41
2021/04/03 07:56:06;;;;;;;1.58;1.00;;;21.00;57.20;;;;;;5091064;28;20039;-42
2021/04/03 07:58:32;;;;;;;1.27;1.17;;;21.10;57.00;;;;;;5091311;28;20016;-41
2021/04/03 08:01:00;;;;;;;1.85;1.67;;;21.10;56.80;;;;;;5091250;28;20075;-41
2021/04/03 08:03:30;;;;;;;2.45;1.38;;;21.10;56.70;;;;;;5091486;28;20024;-41
2021/04/03 08:06:05;;;;;;;1.40;1.30;;;21.00;56.60;;;;;;5085533;28;20028;-42
2021/04/03 08:08:32;;;;;;;1.48;1.38;;;20.90;56.90;;;;;;5087686;28;20028;-42
2021/04/03 08:11:17;;;;;;;1.60;1.50;;;20.90;56.70;;;;;;5088751;28;20012;-40
2021/04/03 08:13:47;;;;;;;2.25;1.90;;;20.90;57.00;;;;;;5089344;28;20027;-41
2021/04/03 08:16:13;;;;;;;8.90;1.48;;;20.90;56.90;;;;;;5083333;28;20040;-40
2021/04/03 08:18:43;;;;;;;2.58;1.67;;;20.80;57.00;;;;;;5066631;28;20097;-42
2021/04/03 08:21:09;;;;;;;1.58;1.48;;;20.80;57.10;;;;;;5066172;28;20414;-39
2021/04/03 08:23:36;;;;;;;1.77;1.63;;;20.80;57.10;;;;;;5063930;28;20036;-42
2021/04/03 08:26:02;;;;;;;2.88;1.70;;;20.80;57.00;;;;;;5066505;28;20051;-38
2021/04/03 08:28:27;;;;;;;1.80;1.70;;;20.80;57.00;;;;;;5066377;28;20032;-40
2021/04/03 08:30:53;;;;;;;1.65;1.50;;;20.70;57.10;;;;;;5067233;28;20036;-42
2021/04/03 08:33:19;;;;;;;1.75;1.65;;;20.60;57.30;;;;;;5066737;28;20107;-40
2021/04/03 08:35:48;;;;;;;10.07;1.77;;;20.50;57.80;;;;;;5064113;28;20085;-39
2021/04/03 08:38:16;;;;;;;2.30;1.50;;;20.40;58.00;;;;;;5059829;28;20059;-43
2021/04/03 08:40:41;;;;;;;2.25;1.60;;;20.50;57.60;;;;;;5057630;28;20024;-49
2021/04/03 08:43:07;;;;;;;3.75;2.00;;;20.60;57.60;;;;;;5056988;28;20035;-37
2021/04/03 08:45:34;;;;;;;2.03;1.63;;;20.50;58.00;;;;;;5057597;28;20028;-37
2021/04/03 08:48:00;;;;;;;1.75;1.65;;;20.60;58.00;;;;;;5057813;28;20048;-40
2021/04/03 08:50:26;;;;;;;2.15;1.95;;;20.70;57.90;;;;;;5057689;28;20032;-42
2021/04/03 08:53:02;;;;;;;2.10;2.00;;;20.80;57.70;;;;;;5057225;28;20042;-40
2021/04/03 08:55:28;;;;;;;2.05;1.88;;;20.80;57.70;;;;;;5060566;28;20114;-41
2021/04/03 08:57:56;;;;;;;2.22;1.95;;;20.80;57.10;;;;;;5059229;28;20028;-47
2021/04/03 09:00:21;;;;;;;2.45;1.90;;;20.80;57.10;;;;;;5059366;28;20124;-42
2021/04/03 09:02:47;;;;;;;4.82;1.98;;;20.70;57.10;;;;;;5059066;28;20135;-39
2021/04/03 09:05:15;;;;;;;2.65;1.92;;;20.70;57.00;;;;;;5059201;28;20039;-42
2021/04/03 09:07:41;;;;;;;2.50;1.92;;;20.70;57.50;;;;;;5059321;28;20841;-43
2021/04/03 09:10:14;;;;;;;2.78;1.98;;;20.70;57.00;;;;;;5060331;28;20028;-46
2021/04/03 09:12:40;;;;;;;2.05;1.65;;;20.70;57.00;;;;;;5058961;28;20044;-41
2021/04/03 09:15:07;;;;;;;2.70;2.03;;;20.70;57.70;;;;;;5059941;28;20109;-42
2021/04/03 09:17:33;;;;;;;1.98;1.77;;;20.80;57.60;;;;;;5074160;28;20071;-42
2021/04/03 09:20:09;;;;;;;1.95;1.85;;;20.80;57.00;;;;;;5079864;28;20028;-50
2021/04/03 09:22:38;;;;;;;2.15;1.95;;;20.90;56.80;;;;;;5078213;28;20059;-44
2021/04/03 09:25:08;;;;;;;3.83;1.90;;;21.00;56.90;;;;;;5079948;28;20020;-42
2021/04/03 09:27:34;;;;;;;5.72;2.10;;;21.00;56.90;;;;;;5079646;28;20067;-47
2021/04/03 09:30:07;;;;;;;1.88;1.77;;;21.00;56.90;;;;;;5083075;28;20413;-41
2021/04/03 09:32:43;;;;;;;2.15;1.70;;;21.10;57.50;;;;;;5085158;28;20119;-41
2021/04/03 09:35:13;;;;;;;4.13;1.80;;;21.10;56.70;;;;;;5071183;28;20097;-41
2021/04/03 09:37:39;;;;;;;2.00;1.90;;;21.20;56.60;;;;;;5076048;28;20511;-47
2021/04/03 09:40:06;;;;;;;1.80;1.70;;;21.20;56.50;;;;;;5088796;28;20028;-44
2021/04/03 09:42:32;;;;;;;1.90;1.80;;;21.30;56.50;;;;;;5085926;28;20039;-42
2021/04/03 09:44:59;;;;;;;2.45;1.90;;;21.40;56.30;;;;;;5088136;28;20458;-46
2021/04/03 09:47:25;;;;;;;2.00;1.90;;;21.40;56.20;;;;;;5088643;28;20028;-45
2021/04/03 09:49:51;;;;;;;2.08;1.88;;;21.40;56.10;;;;;;5089702;28;20074;-45
2021/04/03 09:52:16;;;;;;;2.70;2.05;;;21.50;56.50;;;;;;5088436;28;20052;-45
2021/04/03 09:54:43;;;;;;;1.73;1.63;;;21.60;56.00;;;;;;5088995;28;20024;-43
2021/04/03 09:57:09;;;;;;;2.80;1.95;;;21.60;55.90;;;;;;5087081;28;20098;-42
2021/04/03 09:59:34;;;;;;;1.67;1.58;;;21.70;55.80;;;;;;5093528;28;20027;-43
2021/04/03 10:02:00;;;;;;;1.80;1.70;;;21.70;55.30;;;;;;5093627;28;20020;-42
2021/04/03 10:04:26;;;;;;;2.78;1.98;;;21.70;55.10;;;;;;5093614;28;20034;-43
2021/04/03 10:06:52;;;;;;;2.90;2.10;;;21.70;55.00;;;;;;5091209;28;20148;-41
2021/04/03 10:09:18;;;;;;;3.58;2.22;;;21.70;54.90;;;;;;5090609;28;20024;-41
2021/04/03 10:11:43;;;;;;;1.92;1.80;;;21.70;54.80;;;;;;5093667;28;20031;-42
2021/04/03 10:14:09;;;;;;;1.83;1.73;;;21.80;54.70;;;;;;5093243;28;20031;-42
2021/04/03 10:16:34;;;;;;;1.67;1.58;;;21.80;54.60;;;;;;5092842;28;20071;-45
2021/04/03 10:19:00;;;;;;;2.15;1.65;;;21.70;54.50;;;;;;5094601;28;20547;-46
2021/04/03 10:21:26;;;;;;;1.70;1.60;;;21.70;54.60;;;;;;5093720;28;20111;-44
2021/04/03 10:23:52;;;;;;;1.60;1.50;;;21.80;54.40;;;;;;5093189;28;20110;-45
2021/04/03 10:26:18;;;;;;;1.88;1.77;;;21.80;54.10;;;;;;5090335;28;20035;-44
2021/04/03 10:28:43;;;;;;;1.92;1.67;;;21.70;54.40;;;;;;5093317;28;20085;-43
2021/04/03 10:31:10;;;;;;;1.83;1.73;;;21.70;54.20;;;;;;5092446;28;20036;-46
2021/04/03 10:33:36;;;;;;;2.25;1.60;;;21.70;54.40;;;;;;5091039;28;20024;-44
2021/04/03 10:36:06;;;;;;;2.10;1.80;;;21.80;53.90;;;;;;5092352;28;20032;-43
2021/04/03 10:38:32;;;;;;;3.53;1.52;;;21.70;54.10;;;;;;5092962;28;20028;-45
2021/04/03 10:40:57;;;;;;;1.50;1.40;;;21.60;53.90;;;;;;5092758;28;20116;-47
2021/04/03 10:43:23;;;;;;;1.90;1.80;;;21.60;53.70;;;;;;5091573;28;20040;-47
2021/04/03 10:45:49;;;;;;;3.03;1.88;;;21.60;52.90;;;;;;5093365;28;20024;-50
2021/04/03 10:48:14;;;;;;;5.95;2.10;;;21.60;53.00;;;;;;5091231;28;20051;-48
2021/04/03 10:50:41;;;;;;;2.38;2.10;;;21.70;52.30;;;;;;5092411;28;20024;-46
2021/04/03 10:53:07;;;;;;;1.98;1.83;;;21.70;53.20;;;;;;5092381;28;20039;-45
2021/04/03 10:55:33;;;;;;;2.30;2.10;;;21.70;52.30;;;;;;5091903;28;20025;-45
2021/04/03 10:57:58;;;;;;;2.47;2.22;;;21.70;52.30;;;;;;5093768;28;20393;-43
2021/04/03 11:00:24;;;;;;;2.67;1.90;;;21.60;52.20;;;;;;5092654;28;20114;-44
2021/04/03 11:02:50;;;;;;;1.80;1.70;;;21.70;52.10;;;;;;5092273;28;20031;-49
2021/04/03 11:05:15;;;;;;;2.60;1.85;;;21.70;51.70;;;;;;5087303;28;20032;-46
2021/04/03 11:07:41;;;;;;;1.92;1.83;;;21.80;51.10;;;;;;5092344;28;20413;-48
2021/04/03 11:10:07;;;;;;;2.30;2.10;;;21.80;51.50;;;;;;5092619;28;20047;-47
2021/04/03 11:12:33;;;;;;;2.00;1.90;;;21.70;50.80;;;;;;5093964;28;20024;-48
2021/04/03 11:14:58;;;;;;;2.30;2.10;;;21.70;50.60;;;;;;5091782;28;20024;-46
2021/04/03 11:17:24;;;;;;;2.90;1.88;;;21.70;50.60;;;;;;5091967;28;20044;-53
2021/04/03 11:19:49;;;;;;;3.58;2.10;;;21.70;50.80;;;;;;5092239;28;20020;-50
2021/04/03 11:22:15;;;;;;;5.95;2.30;;;21.60;51.00;;;;;;5091997;28;20119;-49
2021/04/03 11:24:41;;;;;;;2.38;2.17;;;21.70;50.90;;;;;;5126902;27;20024;-47
2021/04/03 11:27:07;;;;;;;2.25;2.15;;;21.70;51.40;;;;;;5090125;28;20082;-45
2021/04/03 11:29:32;;;;;;;2.88;2.20;;;21.80;50.60;;;;;;5091486;28;20095;-45
2021/04/03 11:31:58;;;;;;;2.25;2.05;;;21.80;50.50;;;;;;5092223;28;20036;-45
2021/04/03 11:34:25;;;;;;;2.22;2.00;;;21.70;50.40;;;;;;5092026;28;20063;-48
2021/04/03 11:36:50;;;;;;;2.00;1.75;;;21.70;50.70;;;;;;5093542;28;20036;-46
2021/04/03 11:39:16;;;;;;;1.70;1.60;;;21.70;50.60;;;;;;5091966;28;20039;-45
2021/04/03 11:41:42;;;;;;;2.42;2.22;;;21.70;50.60;;;;;;5091917;28;20039;-48
2021/04/03 11:44:07;;;;;;;2.88;2.00;;;21.60;50.70;;;;;;5089501;28;20107;-49
2021/04/03 11:46:33;;;;;;;3.22;2.55;;;21.60;50.70;;;;;;5090223;28;20032;-44
2021/04/03 11:48:59;;;;;;;4.78;2.72;;;21.70;50.10;;;;;;5079293;28;20028;-45
2021/04/03 11:51:24;;;;;;;4.72;2.17;;;21.80;49.90;;;;;;5081573;28;20050;-47
2021/04/03 11:53:50;;;;;;;2.67;2.47;;;21.90;49.60;;;;;;5078434;28;20514;-43
2021/04/03 11:56:16;;;;;;;2.97;2.10;;;21.90;49.50;;;;;;5080890;28;20035;-43
2021/04/03 11:58:41;;;;;;;3.72;2.08;;;22.00;49.40;;;;;;4724827;28;10000369;-47
2021/04/03 12:01:07;;;;;;;3.33;2.10;;;22.00;49.60;;;;;;5076453;28;20089;-48
2021/04/03 12:03:33;;;;;;;2.80;2.45;;;22.10;49.50;;;;;;5076851;28;20031;-49
2021/04/03 12:05:59;;;;;;;3.08;2.25;;;22.00;49.80;;;;;;5079385;28;20113;-57
2021/04/03 12:08:24;;;;;;;2.25;2.05;;;22.10;49.80;;;;;;5080947;28;20448;-45
2021/04/03 12:10:50;;;;;;;4.57;2.22;;;22.10;49.90;;;;;;5080179;28;20020;-47
2021/04/03 12:13:16;;;;;;;2.15;2.05;;;22.10;50.00;;;;;;5080845;28;20039;-49
2021/04/03 12:15:41;;;;;;;3.47;2.00;;;22.00;50.50;;;;;;5082750;28;20032;-38
2021/04/03 12:18:07;;;;;;;2.22;1.98;;;21.90;51.10;;;;;;5079839;28;20052;-44
2021/04/03 12:20:33;;;;;;;3.20;2.28;;;22.00;51.20;;;;;;5083287;28;20812;-41
2021/04/03 12:23:00;;;;;;;2.15;1.95;;;22.10;51.20;;;;;;5081284;28;20039;-41
2021/04/03 12:25:26;;;;;;;2.42;2.20;;;22.10;51.30;;;;;;5082547;28;20040;-44
2021/04/03 12:27:51;;;;;;;4.60;2.13;;;22.10;51.20;;;;;;5082418;28;20533;-43
2021/04/03 12:30:17;;;;;;;3.90;2.15;;;22.10;51.30;;;;;;5081892;28;20528;-42
2021/04/03 12:32:43;;;;;;;2.95;2.72;;;22.20;51.40;;;;;;5076667;28;20453;-42
2021/04/03 12:35:09;;;;;;;4.10;2.35;;;22.20;51.20;;;;;;5078461;28;21230;-44
2021/04/03 12:37:34;;;;;;;2.67;2.20;;;22.10;51.30;;;;;;5079354;28;20111;-43
2021/04/03 12:40:00;;;;;;;2.60;2.30;;;22.10;51.30;;;;;;5078636;28;20071;-41
2021/04/03 12:42:26;;;;;;;3.72;2.88;;;22.10;51.20;;;;;;5078730;28;20398;-42
2021/04/03 12:44:51;;;;;;;2.67;2.00;;;22.10;51.00;;;;;;5079447;28;20098;-45